sensor_id;sensor_type;location;lat;lon;timestamp;P1;durP1;ratioP1;P2;durP2;ratioP2
78013;SDS011;67222;50.182;8.734;2023-02-20T05:31:57;8.60;;;3.70;;
78013;SDS011;67222;50.182;8.734;2023-02-20T05:34:23;6.85;;;3.05;;
78013;SDS011;67222;50.182;8.734;2023-02-20T05:36:49;8.00;;;3.13;;
78013;SDS011;67222;50.182;8.734;2023-02-20T05:39:15;6.30;;;3.20;;
78013;SDS011;67222;50.182;8.734;2023-02-20T05:41:40;6.93;;;3.03;;
78013;SDS011;67222;50.182;8.734;2023-02-20T05:44:05;7.83;;;3.30;;
78013;SDS011;67222;50.182;8.734;2023-02-20T05:46:30;7.67;;;3.17;;
78013;SDS011;67222;50.182;8.734;2023-02-20T05:48:56;9.73;;;3.30;;
78013;SDS011;67222;50.182;8.734;2023-02-20T05:51:28;8.13;;;3.70;;
78013;SDS011;67222;50.182;8.734;2023-02-20T05:53:53;6.43;;;3.22;;
78013;SDS011;67222;50.182;8.734;2023-02-20T05:56:20;6.65;;;3.58;;
78013;SDS011;67222;50.182;8.734;2023-02-20T05:58:45;6.82;;;3.25;;
78013;SDS011;67222;50.182;8.734;2023-02-20T06:01:18;8.60;;;3.53;;
78013;SDS011;67222;50.182;8.734;2023-02-20T06:03:48;7.32;;;3.38;;
78013;SDS011;67222;50.182;8.734;2023-02-20T06:06:13;7.95;;;3.42;;
78013;SDS011;67222;50.182;8.734;2023-02-20T06:08:40;9.15;;;3.60;;
78013;SDS011;67222;50.182;8.734;2023-02-20T06:11:05;7.63;;;3.47;;
78013;SDS011;67222;50.182;8.734;2023-02-20T06:13:31;9.10;;;3.45;;
78013;SDS011;67222;50.182;8.734;2023-02-20T06:15:56;7.55;;;3.15;;
78013;SDS011;67222;50.182;8.734;2023-02-20T06:18:22;7.47;;;3.80;;
78013;SDS011;67222;50.182;8.734;2023-02-20T06:20:47;8.63;;;3.90;;
78013;SDS011;67222;50.182;8.734;2023-02-20T06:23:12;8.07;;;4.03;;
78013;SDS011;67222;50.182;8.734;2023-02-20T06:25:38;7.50;;;3.43;;
78013;SDS011;67222;50.182;8.734;2023-02-20T06:28:03;9.27;;;4.30;;
78013;SDS011;67222;50.182;8.734;2023-02-20T06:30:29;11.75;;;4.35;;
78013;SDS011;67222;50.182;8.734;2023-02-20T06:32:54;10.20;;;4.32;;
78013;SDS011;67222;50.182;8.734;2023-02-20T06:35:20;9.03;;;3.97;;
78013;SDS011;67222;50.182;8.734;2023-02-20T06:37:45;8.83;;;3.60;;
78013;SDS011;67222;50.182;8.734;2023-02-20T06:40:10;7.40;;;3.80;;
78013;SDS011;67222;50.182;8.734;2023-02-20T06:42:36;9.02;;;4.25;;
78013;SDS011;67222;50.182;8.734;2023-02-20T06:45:01;10.37;;;3.90;;
78013;SDS011;67222;50.182;8.734;2023-02-20T06:47:26;8.77;;;3.55;;
78013;SDS011;67222;50.182;8.734;2023-02-20T06:49:52;9.87;;;4.27;;
78013;SDS011;67222;50.182;8.734;2023-02-20T06:52:17;9.07;;;4.30;;
78013;SDS011;67222;50.182;8.734;2023-02-20T06:54:42;15.93;;;4.17;;
78013;SDS011;67222;50.182;8.734;2023-02-20T06:57:08;10.52;;;4.40;;
78013;SDS011;67222;50.182;8.734;2023-02-20T06:59:34;9.00;;;4.43;;
78013;SDS011;67222;50.182;8.734;2023-02-20T07:02:05;11.25;;;4.55;;
78013;SDS011;67222;50.182;8.734;2023-02-20T07:04:34;11.60;;;4.50;;
78013;SDS011;67222;50.182;8.734;2023-02-20T07:07:00;13.00;;;4.55;;
78013;SDS011;67222;50.182;8.734;2023-02-20T07:09:26;11.30;;;4.57;;
78013;SDS011;67222;50.182;8.734;2023-02-20T07:11:52;10.23;;;4.68;;
78013;SDS011;67222;50.182;8.734;2023-02-20T07:14:18;11.00;;;5.10;;
78013;SDS011;67222;50.182;8.734;2023-02-20T07:16:44;11.70;;;4.68;;
78013;SDS011;67222;50.182;8.734;2023-02-20T07:19:09;9.87;;;4.17;;
78013;SDS011;67222;50.182;8.734;2023-02-20T07:21:35;8.93;;;4.25;;
78013;SDS011;67222;50.182;8.734;2023-02-20T07:24:00;9.05;;;5.10;;
78013;SDS011;67222;50.182;8.734;2023-02-20T07:26:26;9.17;;;4.60;;
78013;SDS011;67222;50.182;8.734;2023-02-20T07:28:53;12.05;;;4.97;;
78013;SDS011;67222;50.182;8.734;2023-02-20T07:33:47;9.73;;;4.10;;
78013;SDS011;67222;50.182;8.734;2023-02-20T07:36:13;9.43;;;4.57;;
78013;SDS011;67222;50.182;8.734;2023-02-20T07:38:41;10.88;;;4.55;;
78013;SDS011;67222;50.182;8.734;2023-02-20T07:41:09;10.55;;;4.82;;
78013;SDS011;67222;50.182;8.734;2023-02-20T07:43:34;9.30;;;4.05;;
78013;SDS011;67222;50.182;8.734;2023-02-20T07:45:59;8.90;;;4.70;;
78013;SDS011;67222;50.182;8.734;2023-02-20T07:48:25;13.27;;;4.80;;
78013;SDS011;67222;50.182;8.734;2023-02-20T07:50:50;9.75;;;4.57;;
78013;SDS011;67222;50.182;8.734;2023-02-20T07:53:17;9.95;;;4.47;;
78013;SDS011;67222;50.182;8.734;2023-02-20T07:55:43;11.40;;;4.57;;
78013;SDS011;67222;50.182;8.734;2023-02-20T07:58:09;8.68;;;4.72;;
78013;SDS011;67222;50.182;8.734;2023-02-20T08:00:34;7.25;;;4.03;;
78013;SDS011;67222;50.182;8.734;2023-02-20T08:03:00;11.13;;;5.03;;
78013;SDS011;67222;50.182;8.734;2023-02-20T08:05:25;10.05;;;4.10;;
78013;SDS011;67222;50.182;8.734;2023-02-20T08:07:51;13.68;;;4.28;;
78013;SDS011;67222;50.182;8.734;2023-02-20T08:10:18;9.48;;;3.85;;
78013;SDS011;67222;50.182;8.734;2023-02-20T08:12:46;10.02;;;4.22;;
78013;SDS011;67222;50.182;8.734;2023-02-20T08:15:12;10.30;;;4.45;;
78013;SDS011;67222;50.182;8.734;2023-02-20T08:17:38;10.50;;;4.77;;
78013;SDS011;67222;50.182;8.734;2023-02-20T08:20:04;8.90;;;4.68;;
78013;SDS011;67222;50.182;8.734;2023-02-20T08:22:31;10.27;;;4.88;;
78013;SDS011;67222;50.182;8.734;2023-02-20T08:24:56;12.20;;;4.70;;
78013;SDS011;67222;50.182;8.734;2023-02-20T08:27:22;9.33;;;4.73;;
78013;SDS011;67222;50.182;8.734;2023-02-20T08:29:47;9.73;;;4.27;;
78013;SDS011;67222;50.182;8.734;2023-02-20T08:32:12;9.83;;;4.40;;
78013;SDS011;67222;50.182;8.734;2023-02-20T08:34:37;9.20;;;3.67;;
78013;SDS011;67222;50.182;8.734;2023-02-20T08:37:03;9.00;;;4.13;;
78013;SDS011;67222;50.182;8.734;2023-02-20T08:39:28;10.17;;;4.33;;
78013;SDS011;67222;50.182;8.734;2023-02-20T08:41:53;8.33;;;3.93;;
78013;SDS011;67222;50.182;8.734;2023-02-20T08:44:19;7.33;;;3.87;;
78013;SDS011;67222;50.182;8.734;2023-02-20T08:46:47;7.77;;;3.80;;
78013;SDS011;67222;50.182;8.734;2023-02-20T08:49:14;8.00;;;4.55;;
78013;SDS011;67222;50.182;8.734;2023-02-20T08:51:42;10.00;;;4.85;;
78013;SDS011;67222;50.182;8.734;2023-02-20T08:54:17;10.30;;;4.25;;
78013;SDS011;67222;50.182;8.734;2023-02-20T08:56:42;10.38;;;5.40;;
78013;SDS011;67222;50.182;8.734;2023-02-20T08:59:08;9.07;;;4.80;;
78013;SDS011;67222;50.182;8.734;2023-02-20T09:01:34;10.13;;;4.82;;
78013;SDS011;67222;50.182;8.734;2023-02-20T09:03:59;11.67;;;4.20;;
78013;SDS011;67222;50.182;8.734;2023-02-20T09:06:25;11.57;;;4.95;;
78013;SDS011;67222;50.182;8.734;2023-02-20T09:08:52;10.18;;;4.82;;
78013;SDS011;67222;50.182;8.734;2023-02-20T09:11:17;12.35;;;5.20;;
78013;SDS011;67222;50.182;8.734;2023-02-20T09:13:43;10.20;;;5.22;;
78013;SDS011;67222;50.182;8.734;2023-02-20T09:16:10;11.38;;;5.82;;
78013;SDS011;67222;50.182;8.734;2023-02-20T09:18:36;13.80;;;6.40;;
78013;SDS011;67222;50.182;8.734;2023-02-20T09:21:02;11.93;;;5.50;;
78013;SDS011;67222;50.182;8.734;2023-02-20T09:23:27;15.63;;;5.78;;
78013;SDS011;67222;50.182;8.734;2023-02-20T09:25:52;14.20;;;6.07;;
78013;SDS011;67222;50.182;8.734;2023-02-20T09:28:18;12.33;;;5.70;;
78013;SDS011;67222;50.182;8.734;2023-02-20T09:30:44;12.68;;;6.47;;
78013;SDS011;67222;50.182;8.734;2023-02-20T09:33:09;13.25;;;5.95;;
78013;SDS011;67222;50.182;8.734;2023-02-20T09:35:35;12.82;;;5.82;;
78013;SDS011;67222;50.182;8.734;2023-02-20T09:38:00;13.93;;;6.45;;
78013;SDS011;67222;50.182;8.734;2023-02-20T09:40:27;15.68;;;5.60;;
78013;SDS011;67222;50.182;8.734;2023-02-20T09:45:32;14.93;;;6.50;;
78013;SDS011;67222;50.182;8.734;2023-02-20T09:48:04;13.10;;;6.05;;
78013;SDS011;67222;50.182;8.734;2023-02-20T09:50:54;10.95;;;5.88;;
78013;SDS011;67222;50.182;8.734;2023-02-20T09:54:09;15.13;;;6.15;;
78013;SDS011;67222;50.182;8.734;2023-02-20T09:56:49;11.35;;;6.40;;
78013;SDS011;67222;50.182;8.734;2023-02-20T10:01:58;13.70;;;5.60;;
78013;SDS011;67222;50.182;8.734;2023-02-20T10:04:30;12.63;;;5.88;;
78013;SDS011;67222;50.182;8.734;2023-02-20T10:07:12;10.65;;;5.45;;
78013;SDS011;67222;50.182;8.734;2023-02-20T10:09:51;14.27;;;6.90;;
78013;SDS011;67222;50.182;8.734;2023-02-20T10:12:27;13.80;;;6.07;;
78013;SDS011;67222;50.182;8.734;2023-02-20T10:15:18;11.27;;;5.72;;
78013;SDS011;67222;50.182;8.734;2023-02-20T10:23:49;11.95;;;5.75;;
78013;SDS011;67222;50.182;8.734;2023-02-20T10:26:18;14.77;;;6.72;;
78013;SDS011;67222;50.182;8.734;2023-02-20T10:28:48;14.65;;;5.60;;
78013;SDS011;67222;50.182;8.734;2023-02-20T10:31:24;11.70;;;5.53;;
78013;SDS011;67222;50.182;8.734;2023-02-20T10:33:56;12.52;;;5.97;;
78013;SDS011;67222;50.182;8.734;2023-02-20T10:36:35;14.45;;;6.88;;
78013;SDS011;67222;50.182;8.734;2023-02-20T10:39:05;17.60;;;6.13;;
78013;SDS011;67222;50.182;8.734;2023-02-20T10:41:32;11.68;;;5.35;;
78013;SDS011;67222;50.182;8.734;2023-02-20T10:44:06;11.50;;;5.80;;
78013;SDS011;67222;50.182;8.734;2023-02-20T10:46:59;11.63;;;5.80;;
78013;SDS011;67222;50.182;8.734;2023-02-20T10:49:40;12.15;;;5.38;;
78013;SDS011;67222;50.182;8.734;2023-02-20T10:52:14;13.00;;;5.35;;
78013;SDS011;67222;50.182;8.734;2023-02-20T10:54:50;13.82;;;5.93;;
78013;SDS011;67222;50.182;8.734;2023-02-20T10:57:22;15.90;;;5.95;;
78013;SDS011;67222;50.182;8.734;2023-02-20T11:02:24;13.82;;;6.40;;
78013;SDS011;67222;50.182;8.734;2023-02-20T11:04:56;16.92;;;6.32;;
78013;SDS011;67222;50.182;8.734;2023-02-20T11:07:30;10.43;;;5.18;;
78013;SDS011;67222;50.182;8.734;2023-02-20T11:09:55;13.40;;;5.70;;
78013;SDS011;67222;50.182;8.734;2023-02-20T11:12:23;11.67;;;5.13;;
78013;SDS011;67222;50.182;8.734;2023-02-20T11:14:54;12.23;;;5.25;;
78013;SDS011;67222;50.182;8.734;2023-02-20T11:17:22;10.73;;;5.10;;
78013;SDS011;67222;50.182;8.734;2023-02-20T11:19:55;11.80;;;5.10;;
78013;SDS011;67222;50.182;8.734;2023-02-20T11:27:50;8.73;;;4.70;;
78013;SDS011;67222;50.182;8.734;2023-02-20T11:32:47;6.95;;;3.67;;
78013;SDS011;67222;50.182;8.734;2023-02-20T11:37:41;7.82;;;3.60;;
78013;SDS011;67222;50.182;8.734;2023-02-20T11:40:20;8.23;;;3.58;;
78013;SDS011;67222;50.182;8.734;2023-02-20T11:42:52;9.20;;;4.22;;
78013;SDS011;67222;50.182;8.734;2023-02-20T11:45:22;9.68;;;3.95;;
78013;SDS011;67222;50.182;8.734;2023-02-20T11:48:09;11.05;;;4.85;;
78013;SDS011;67222;50.182;8.734;2023-02-20T11:50:42;8.68;;;4.55;;
78013;SDS011;67222;50.182;8.734;2023-02-20T11:53:17;7.75;;;4.18;;
78013;SDS011;67222;50.182;8.734;2023-02-20T11:58:34;8.43;;;3.58;;
78013;SDS011;67222;50.182;8.734;2023-02-20T12:01:00;6.53;;;3.50;;
78013;SDS011;67222;50.182;8.734;2023-02-20T12:03:26;8.23;;;2.97;;
78013;SDS011;67222;50.182;8.734;2023-02-20T12:05:59;8.23;;;2.90;;
78013;SDS011;67222;50.182;8.734;2023-02-20T12:11:23;7.85;;;3.17;;
78013;SDS011;67222;50.182;8.734;2023-02-20T12:13:50;7.70;;;2.95;;
78013;SDS011;67222;50.182;8.734;2023-02-20T12:21:33;5.50;;;2.60;;
78013;SDS011;67222;50.182;8.734;2023-02-20T12:24:24;5.30;;;2.80;;
78013;SDS011;67222;50.182;8.734;2023-02-20T12:27:33;6.88;;;2.85;;
78013;SDS011;67222;50.182;8.734;2023-02-20T12:38:58;6.53;;;2.97;;
78013;SDS011;67222;50.182;8.734;2023-02-20T12:44:15;9.25;;;3.20;;
78013;SDS011;67222;50.182;8.734;2023-02-20T12:47:04;5.82;;;3.08;;
78013;SDS011;67222;50.182;8.734;2023-02-20T12:55:13;6.72;;;3.28;;
78013;SDS011;67222;50.182;8.734;2023-02-20T13:03:01;6.18;;;2.40;;
78013;SDS011;67222;50.182;8.734;2023-02-20T13:05:34;4.82;;;2.70;;
78013;SDS011;67222;50.182;8.734;2023-02-20T13:08:06;6.93;;;2.80;;
78013;SDS011;67222;50.182;8.734;2023-02-20T13:10:41;5.72;;;2.78;;
78013;SDS011;67222;50.182;8.734;2023-02-20T13:13:12;5.68;;;2.72;;
78013;SDS011;67222;50.182;8.734;2023-02-20T13:21:16;6.22;;;2.67;;
78013;SDS011;67222;50.182;8.734;2023-02-20T13:23:45;6.05;;;2.55;;
78013;SDS011;67222;50.182;8.734;2023-02-20T13:28:51;4.88;;;2.35;;
78013;SDS011;67222;50.182;8.734;2023-02-20T13:33:50;4.82;;;2.30;;
78013;SDS011;67222;50.182;8.734;2023-02-20T13:46:56;4.93;;;2.10;;
78013;SDS011;67222;50.182;8.734;2023-02-20T13:57:33;3.60;;;2.03;;
78013;SDS011;67222;50.182;8.734;2023-02-20T14:02:59;5.47;;;2.20;;
78013;SDS011;67222;50.182;8.734;2023-02-20T14:05:31;4.97;;;1.90;;
78013;SDS011;67222;50.182;8.734;2023-02-20T14:07:57;4.28;;;2.08;;
78013;SDS011;67222;50.182;8.734;2023-02-20T14:15:33;6.10;;;2.35;;
78013;SDS011;67222;50.182;8.734;2023-02-20T14:18:16;5.15;;;1.92;;
78013;SDS011;67222;50.182;8.734;2023-02-20T14:20:44;4.05;;;2.10;;
78013;SDS011;67222;50.182;8.734;2023-02-20T14:23:21;3.83;;;2.00;;
78013;SDS011;67222;50.182;8.734;2023-02-20T14:26:03;5.65;;;2.53;;
78013;SDS011;67222;50.182;8.734;2023-02-20T14:28:32;5.65;;;2.10;;
78013;SDS011;67222;50.182;8.734;2023-02-20T14:31:18;5.45;;;2.25;;
78013;SDS011;67222;50.182;8.734;2023-02-20T14:33:46;3.63;;;1.70;;
78013;SDS011;67222;50.182;8.734;2023-02-20T14:36:18;5.47;;;1.92;;
78013;SDS011;67222;50.182;8.734;2023-02-20T14:38:46;4.25;;;1.65;;
78013;SDS011;67222;50.182;8.734;2023-02-20T14:41:22;3.67;;;1.88;;
78013;SDS011;67222;50.182;8.734;2023-02-20T14:43:55;3.85;;;1.55;;
78013;SDS011;67222;50.182;8.734;2023-02-20T14:46:23;4.88;;;1.80;;
78013;SDS011;67222;50.182;8.734;2023-02-20T14:49:02;5.13;;;1.90;;
78013;SDS011;67222;50.182;8.734;2023-02-20T14:51:38;4.63;;;1.75;;
78013;SDS011;67222;50.182;8.734;2023-02-20T14:54:15;6.15;;;2.03;;
78013;SDS011;67222;50.182;8.734;2023-02-20T14:56:43;4.45;;;1.60;;
78013;SDS011;67222;50.182;8.734;2023-02-20T14:59:21;3.47;;;1.27;;
78013;SDS011;67222;50.182;8.734;2023-02-20T15:01:49;3.97;;;1.98;;
78013;SDS011;67222;50.182;8.734;2023-02-20T15:04:16;3.75;;;1.38;;
78013;SDS011;67222;50.182;8.734;2023-02-20T15:06:43;4.18;;;2.05;;
78013;SDS011;67222;50.182;8.734;2023-02-20T15:09:12;6.18;;;1.60;;
78013;SDS011;67222;50.182;8.734;2023-02-20T15:11:45;4.22;;;1.70;;
78013;SDS011;67222;50.182;8.734;2023-02-20T15:14:21;4.30;;;1.50;;
78013;SDS011;67222;50.182;8.734;2023-02-20T15:17:05;3.63;;;1.60;;
78013;SDS011;67222;50.182;8.734;2023-02-20T15:19:34;6.47;;;1.73;;
78013;SDS011;67222;50.182;8.734;2023-02-20T15:22:03;4.90;;;1.60;;
78013;SDS011;67222;50.182;8.734;2023-02-20T15:27:05;5.70;;;1.75;;
78013;SDS011;67222;50.182;8.734;2023-02-20T15:29:32;3.92;;;1.70;;
78013;SDS011;67222;50.182;8.734;2023-02-20T15:32:02;5.13;;;1.40;;
78013;SDS011;67222;50.182;8.734;2023-02-20T15:34:31;4.43;;;1.70;;
78013;SDS011;67222;50.182;8.734;2023-02-20T15:36:58;4.72;;;2.22;;
78013;SDS011;67222;50.182;8.734;2023-02-20T15:39:24;3.60;;;1.30;;
78013;SDS011;67222;50.182;8.734;2023-02-20T15:41:50;4.75;;;1.48;;
78013;SDS011;67222;50.182;8.734;2023-02-20T15:44:17;6.70;;;1.55;;
78013;SDS011;67222;50.182;8.734;2023-02-20T15:46:43;3.85;;;1.48;;
78013;SDS011;67222;50.182;8.734;2023-02-20T15:49:08;4.22;;;1.60;;
78013;SDS011;67222;50.182;8.734;2023-02-20T15:51:38;7.07;;;2.10;;
78013;SDS011;67222;50.182;8.734;2023-02-20T15:54:05;5.95;;;1.60;;
78013;SDS011;67222;50.182;8.734;2023-02-20T15:56:35;5.32;;;1.45;;
78013;SDS011;67222;50.182;8.734;2023-02-20T15:59:05;6.10;;;1.70;;
78013;SDS011;67222;50.182;8.734;2023-02-20T16:01:32;7.00;;;1.92;;
78013;SDS011;67222;50.182;8.734;2023-02-20T16:03:58;4.13;;;1.60;;
78013;SDS011;67222;50.182;8.734;2023-02-20T16:06:23;5.17;;;1.53;;
78013;SDS011;67222;50.182;8.734;2023-02-20T16:08:49;3.30;;;1.60;;
78013;SDS011;67222;50.182;8.734;2023-02-20T16:11:16;6.47;;;2.10;;
78013;SDS011;67222;50.182;8.734;2023-02-20T16:13:42;3.10;;;1.17;;
78013;SDS011;67222;50.182;8.734;2023-02-20T16:16:12;4.55;;;1.48;;
78013;SDS011;67222;50.182;8.734;2023-02-20T16:18:42;4.93;;;1.52;;
78013;SDS011;67222;50.182;8.734;2023-02-20T16:21:09;5.27;;;1.40;;
78013;SDS011;67222;50.182;8.734;2023-02-20T16:23:36;6.35;;;1.60;;
78013;SDS011;67222;50.182;8.734;2023-02-20T16:26:03;4.38;;;1.65;;
78013;SDS011;67222;50.182;8.734;2023-02-20T16:28:28;5.25;;;1.70;;
78013;SDS011;67222;50.182;8.734;2023-02-20T16:30:53;3.63;;;1.70;;
78013;SDS011;67222;50.182;8.734;2023-02-20T16:33:19;4.93;;;1.70;;
78013;SDS011;67222;50.182;8.734;2023-02-20T16:35:47;6.38;;;1.75;;
78013;SDS011;67222;50.182;8.734;2023-02-20T16:38:13;4.28;;;1.60;;
78013;SDS011;67222;50.182;8.734;2023-02-20T16:40:39;5.28;;;1.55;;
78013;SDS011;67222;50.182;8.734;2023-02-20T16:43:05;5.28;;;1.80;;
78013;SDS011;67222;50.182;8.734;2023-02-20T16:45:30;4.20;;;1.60;;
78013;SDS011;67222;50.182;8.734;2023-02-20T16:47:56;5.15;;;1.40;;
78013;SDS011;67222;50.182;8.734;2023-02-20T16:50:26;5.68;;;1.83;;
78013;SDS011;67222;50.182;8.734;2023-02-20T16:52:56;4.88;;;1.67;;
78013;SDS011;67222;50.182;8.734;2023-02-20T16:57:50;4.03;;;1.90;;
78013;SDS011;67222;50.182;8.734;2023-02-20T17:00:17;3.10;;;1.40;;
78013;SDS011;67222;50.182;8.734;2023-02-20T17:05:10;4.25;;;1.40;;
78013;SDS011;67222;50.182;8.734;2023-02-20T17:07:36;3.05;;;1.10;;
78013;SDS011;67222;50.182;8.734;2023-02-20T17:10:04;4.28;;;1.42;;
78013;SDS011;67222;50.182;8.734;2023-02-20T17:12:31;3.50;;;1.35;;
78013;SDS011;67222;50.182;8.734;2023-02-20T17:14:57;6.90;;;1.77;;
78013;SDS011;67222;50.182;8.734;2023-02-20T17:17:24;4.38;;;1.50;;
78013;SDS011;67222;50.182;8.734;2023-02-20T17:19:49;3.90;;;1.40;;
78013;SDS011;67222;50.182;8.734;2023-02-20T17:22:19;3.58;;;1.40;;
78013;SDS011;67222;50.182;8.734;2023-02-20T17:24:45;3.38;;;1.20;;
78013;SDS011;67222;50.182;8.734;2023-02-20T17:27:11;3.53;;;1.40;;
78013;SDS011;67222;50.182;8.734;2023-02-20T17:29:38;2.95;;;1.38;;
78013;SDS011;67222;50.182;8.734;2023-02-20T17:32:05;3.15;;;1.25;;
78013;SDS011;67222;50.182;8.734;2023-02-20T17:34:31;4.30;;;1.45;;
78013;SDS011;67222;50.182;8.734;2023-02-20T17:36:56;3.50;;;1.47;;
78013;SDS011;67222;50.182;8.734;2023-02-20T17:39:22;3.23;;;1.10;;
78013;SDS011;67222;50.182;8.734;2023-02-20T17:41:48;4.13;;;1.52;;
78013;SDS011;67222;50.182;8.734;2023-02-20T17:44:15;4.15;;;1.50;;
78013;SDS011;67222;50.182;8.734;2023-02-20T17:47:02;2.85;;;1.10;;
78013;SDS011;67222;50.182;8.734;2023-02-20T17:49:27;7.57;;;1.60;;
78013;SDS011;67222;50.182;8.734;2023-02-20T17:51:54;4.45;;;1.65;;
78013;SDS011;67222;50.182;8.734;2023-02-20T17:54:22;3.20;;;1.40;;
78013;SDS011;67222;50.182;8.734;2023-02-20T17:56:48;6.03;;;1.50;;
78013;SDS011;67222;50.182;8.734;2023-02-20T17:59:14;3.85;;;1.50;;
78013;SDS011;67222;50.182;8.734;2023-02-20T18:06:34;3.03;;;1.50;;
78013;SDS011;67222;50.182;8.734;2023-02-20T18:09:01;3.28;;;1.55;;
78013;SDS011;67222;50.182;8.734;2023-02-20T18:11:27;2.85;;;1.30;;
78013;SDS011;67222;50.182;8.734;2023-02-20T18:13:53;5.00;;;1.75;;
78013;SDS011;67222;50.182;8.734;2023-02-20T18:16:19;5.03;;;1.80;;
78013;SDS011;67222;50.182;8.734;2023-02-20T18:18:45;3.42;;;1.80;;
78013;SDS011;67222;50.182;8.734;2023-02-20T18:21:23;5.00;;;1.60;;
78013;SDS011;67222;50.182;8.734;2023-02-20T18:23:53;4.47;;;1.80;;
78013;SDS011;67222;50.182;8.734;2023-02-20T18:26:19;5.72;;;1.60;;
78013;SDS011;67222;50.182;8.734;2023-02-20T18:28:45;3.60;;;1.40;;
78013;SDS011;67222;50.182;8.734;2023-02-20T18:31:10;3.40;;;1.80;;
78013;SDS011;67222;50.182;8.734;2023-02-20T18:33:36;5.65;;;1.75;;
78013;SDS011;67222;50.182;8.734;2023-02-20T18:36:03;4.50;;;1.75;;
78013;SDS011;67222;50.182;8.734;2023-02-20T18:38:29;4.53;;;1.73;;
78013;SDS011;67222;50.182;8.734;2023-02-20T18:40:54;4.25;;;1.48;;
78013;SDS011;67222;50.182;8.734;2023-02-20T18:43:19;4.27;;;1.73;;
78013;SDS011;67222;50.182;8.734;2023-02-20T18:45:45;3.33;;;1.60;;
78013;SDS011;67222;50.182;8.734;2023-02-20T18:48:10;5.53;;;2.00;;
78013;SDS011;67222;50.182;8.734;2023-02-20T18:50:36;5.13;;;1.77;;
78013;SDS011;67222;50.182;8.734;2023-02-20T18:53:01;7.73;;;1.90;;
78013;SDS011;67222;50.182;8.734;2023-02-20T18:55:26;3.47;;;1.67;;
78013;SDS011;67222;50.182;8.734;2023-02-20T18:57:52;5.30;;;1.88;;
78013;SDS011;67222;50.182;8.734;2023-02-20T19:00:18;5.38;;;1.70;;
78013;SDS011;67222;50.182;8.734;2023-02-20T19:02:45;6.13;;;1.90;;
78013;SDS011;67222;50.182;8.734;2023-02-20T19:05:13;4.60;;;2.00;;
78013;SDS011;67222;50.182;8.734;2023-02-20T19:07:41;4.68;;;2.20;;
78013;SDS011;67222;50.182;8.734;2023-02-20T19:10:09;7.88;;;2.00;;
78013;SDS011;67222;50.182;8.734;2023-02-20T19:12:36;8.57;;;2.20;;
78013;SDS011;67222;50.182;8.734;2023-02-20T19:15:01;5.60;;;2.47;;
78013;SDS011;67222;50.182;8.734;2023-02-20T19:17:28;4.53;;;1.90;;
78013;SDS011;67222;50.182;8.734;2023-02-20T19:19:55;5.10;;;2.00;;
78013;SDS011;67222;50.182;8.734;2023-02-20T19:22:20;5.27;;;2.13;;
78013;SDS011;67222;50.182;8.734;2023-02-20T19:24:47;5.63;;;2.28;;
78013;SDS011;67222;50.182;8.734;2023-02-20T19:27:12;6.55;;;1.92;;
78013;SDS011;67222;50.182;8.734;2023-02-20T19:29:38;4.10;;;1.85;;
78013;SDS011;67222;50.182;8.734;2023-02-20T19:32:03;3.78;;;1.98;;
78013;SDS011;67222;50.182;8.734;2023-02-20T19:34:29;9.25;;;2.30;;
78013;SDS011;67222;50.182;8.734;2023-02-20T19:36:54;4.90;;;1.73;;
78013;SDS011;67222;50.182;8.734;2023-02-20T19:39:19;5.60;;;2.05;;
78013;SDS011;67222;50.182;8.734;2023-02-20T19:41:48;3.70;;;2.20;;
78013;SDS011;67222;50.182;8.734;2023-02-20T19:44:14;7.05;;;2.42;;
78013;SDS011;67222;50.182;8.734;2023-02-20T19:46:40;5.95;;;2.55;;
78013;SDS011;67222;50.182;8.734;2023-02-20T19:49:06;6.30;;;2.50;;
78013;SDS011;67222;50.182;8.734;2023-02-20T19:51:36;5.43;;;2.90;;
78013;SDS011;67222;50.182;8.734;2023-02-20T19:54:03;5.63;;;2.65;;
78013;SDS011;67222;50.182;8.734;2023-02-20T19:56:28;8.20;;;3.13;;
78013;SDS011;67222;50.182;8.734;2023-02-20T19:58:53;6.13;;;2.17;;
78013;SDS011;67222;50.182;8.734;2023-02-20T20:01:18;4.77;;;2.33;;
78013;SDS011;67222;50.182;8.734;2023-02-20T20:03:44;6.90;;;2.83;;
78013;SDS011;67222;50.182;8.734;2023-02-20T20:06:11;4.30;;;2.25;;
78013;SDS011;67222;50.182;8.734;2023-02-20T20:08:38;6.15;;;2.30;;
78013;SDS011;67222;50.182;8.734;2023-02-20T20:11:04;5.13;;;2.80;;
78013;SDS011;67222;50.182;8.734;2023-02-20T20:13:29;4.70;;;2.10;;
78013;SDS011;67222;50.182;8.734;2023-02-20T20:15:55;5.15;;;2.35;;
78013;SDS011;67222;50.182;8.734;2023-02-20T20:18:21;7.32;;;2.65;;
78013;SDS011;67222;50.182;8.734;2023-02-20T20:20:47;4.25;;;2.50;;
78013;SDS011;67222;50.182;8.734;2023-02-20T20:23:13;7.53;;;2.88;;
78013;SDS011;67222;50.182;8.734;2023-02-20T20:25:38;7.63;;;3.08;;
78013;SDS011;67222;50.182;8.734;2023-02-20T20:28:04;7.22;;;2.90;;
78013;SDS011;67222;50.182;8.734;2023-02-20T20:30:31;6.38;;;2.65;;
78013;SDS011;67222;50.182;8.734;2023-02-20T20:32:57;9.95;;;3.00;;
78013;SDS011;67222;50.182;8.734;2023-02-20T20:35:24;8.38;;;3.20;;
78013;SDS011;67222;50.182;8.734;2023-02-20T20:37:50;5.03;;;2.55;;
78013;SDS011;67222;50.182;8.734;2023-02-20T20:40:20;7.15;;;2.63;;
78013;SDS011;67222;50.182;8.734;2023-02-20T20:42:46;6.50;;;2.13;;
78013;SDS011;67222;50.182;8.734;2023-02-20T20:45:12;6.10;;;2.20;;
78013;SDS011;67222;50.182;8.734;2023-02-20T20:47:38;5.43;;;2.20;;
78013;SDS011;67222;50.182;8.734;2023-02-20T20:50:08;7.95;;;2.20;;
78013;SDS011;67222;50.182;8.734;2023-02-20T20:52:34;5.72;;;2.58;;
78013;SDS011;67222;50.182;8.734;2023-02-20T20:55:00;8.70;;;2.77;;
78013;SDS011;67222;50.182;8.734;2023-02-20T20:57:26;7.03;;;2.58;;
78013;SDS011;67222;50.182;8.734;2023-02-20T20:59:54;5.88;;;2.40;;
78013;SDS011;67222;50.182;8.734;2023-02-20T21:02:20;7.15;;;2.60;;
78013;SDS011;67222;50.182;8.734;2023-02-20T21:04:46;7.03;;;3.22;;
78013;SDS011;67222;50.182;8.734;2023-02-20T21:07:13;5.57;;;2.50;;
78013;SDS011;67222;50.182;8.734;2023-02-20T21:09:38;9.55;;;2.88;;
78013;SDS011;67222;50.182;8.734;2023-02-20T21:12:04;4.57;;;2.10;;
78013;SDS011;67222;50.182;8.734;2023-02-20T21:14:30;6.22;;;2.40;;
78013;SDS011;67222;50.182;8.734;2023-02-20T21:16:56;6.30;;;2.33;;
78013;SDS011;67222;50.182;8.734;2023-02-20T21:19:21;6.15;;;2.55;;
78013;SDS011;67222;50.182;8.734;2023-02-20T21:21:47;6.55;;;2.63;;
78013;SDS011;67222;50.182;8.734;2023-02-20T21:24:12;6.87;;;2.37;;
78013;SDS011;67222;50.182;8.734;2023-02-20T21:26:38;5.68;;;2.55;;
78013;SDS011;67222;50.182;8.734;2023-02-20T21:29:04;9.13;;;3.42;;
78013;SDS011;67222;50.182;8.734;2023-02-20T21:31:30;6.18;;;2.53;;
78013;SDS011;67222;50.182;8.734;2023-02-20T21:33:56;7.07;;;2.72;;
78013;SDS011;67222;50.182;8.734;2023-02-20T21:36:21;5.82;;;2.75;;
78013;SDS011;67222;50.182;8.734;2023-02-20T21:38:47;6.60;;;2.20;;
78013;SDS011;67222;50.182;8.734;2023-02-20T21:41:12;6.07;;;2.13;;
78013;SDS011;67222;50.182;8.734;2023-02-20T21:44:03;5.75;;;2.25;;
78013;SDS011;67222;50.182;8.734;2023-02-20T21:46:48;6.13;;;2.92;;
78013;SDS011;67222;50.182;8.734;2023-02-20T21:49:14;5.28;;;2.28;;
78013;SDS011;67222;50.182;8.734;2023-02-20T21:51:39;8.17;;;2.57;;
78013;SDS011;67222;50.182;8.734;2023-02-20T21:54:04;4.87;;;2.67;;
78013;SDS011;67222;50.182;8.734;2023-02-20T21:56:29;6.15;;;2.70;;
78013;SDS011;67222;50.182;8.734;2023-02-20T21:58:55;6.60;;;2.57;;
78013;SDS011;67222;50.182;8.734;2023-02-20T22:01:26;6.32;;;2.50;;
78013;SDS011;67222;50.182;8.734;2023-02-20T22:03:55;8.98;;;2.67;;
78013;SDS011;67222;50.182;8.734;2023-02-20T22:06:21;6.60;;;2.78;;
78013;SDS011;67222;50.182;8.734;2023-02-20T22:08:47;6.45;;;2.70;;
78013;SDS011;67222;50.182;8.734;2023-02-20T22:11:31;6.65;;;2.40;;
78013;SDS011;67222;50.182;8.734;2023-02-20T22:14:16;7.07;;;2.88;;